createdAt,value
2018-12-18T00:00:11.278Z,1.40
2018-12-18T00:00:48.255Z,1.40
2018-12-18T00:01:24.397Z,1.50
2018-12-18T00:02:01.005Z,1.40
2018-12-18T00:02:37.195Z,1.40
2018-12-18T00:03:14.065Z,1.40
2018-12-18T00:03:50.123Z,1.40
2018-12-18T00:04:26.167Z,1.50
2018-12-18T00:05:06.459Z,1.50
2018-12-18T00:05:42.891Z,1.40
2018-12-18T00:06:18.906Z,1.40
2018-12-18T00:06:54.983Z,1.40
2018-12-18T00:07:30.995Z,1.40
2018-12-18T00:08:07.855Z,1.40
2018-12-18T00:08:44.221Z,1.40
2018-12-18T00:09:20.487Z,1.40
2018-12-18T00:09:56.589Z,1.40
2018-12-18T00:10:38.738Z,1.40
2018-12-18T00:11:14.797Z,1.40
2018-12-18T00:11:50.839Z,1.40
2018-12-18T00:12:27.281Z,1.40
2018-12-18T00:13:03.339Z,1.40
2018-12-18T00:13:39.811Z,1.40
2018-12-18T00:14:16.527Z,1.40
2018-12-18T00:14:52.803Z,1.40
2018-12-18T00:15:28.983Z,1.30
2018-12-18T00:16:05.014Z,1.30
2018-12-18T00:16:41.019Z,1.30
2018-12-18T00:17:17.460Z,1.40
2018-12-18T00:17:53.937Z,1.40
2018-12-18T00:18:30.426Z,1.30
2018-12-18T00:19:06.919Z,1.40
2018-12-18T00:19:43.347Z,1.30
2018-12-18T00:20:19.631Z,1.30
2018-12-18T00:20:55.719Z,1.40
2018-12-18T00:21:31.793Z,1.40
2018-12-18T00:22:08.963Z,1.40
2018-12-18T00:22:45.371Z,1.40
2018-12-18T00:23:21.403Z,1.40
2018-12-18T00:23:58.343Z,1.40
2018-12-18T00:24:34.353Z,1.30
2018-12-18T00:25:18.047Z,1.30
2018-12-18T00:25:54.302Z,1.40
2018-12-18T00:26:30.347Z,1.30
2018-12-18T00:27:07.104Z,1.30
2018-12-18T00:27:43.259Z,1.30
2018-12-18T00:28:19.916Z,1.40
2018-12-18T00:28:56.386Z,1.30
2018-12-18T00:29:32.475Z,1.40
2018-12-18T00:30:15.031Z,1.40
2018-12-18T00:30:51.510Z,1.40
2018-12-18T00:31:28.007Z,1.40
2018-12-18T00:32:05.141Z,1.40
2018-12-18T00:32:41.151Z,1.40
2018-12-18T00:33:17.181Z,1.40
2018-12-18T00:33:53.871Z,1.30
2018-12-18T00:34:31.161Z,1.30
2018-12-18T00:35:08.087Z,1.30
2018-12-18T00:35:44.923Z,1.30
2018-12-18T00:36:21.041Z,1.30
2018-12-18T00:36:57.153Z,1.30
2018-12-18T00:37:33.599Z,1.30
2018-12-18T00:38:09.639Z,1.30
2018-12-18T00:38:45.742Z,1.30
2018-12-18T00:39:21.794Z,1.30
2018-12-18T00:39:57.843Z,1.30
2018-12-18T00:40:33.909Z,1.30
2018-12-18T00:41:10.339Z,1.30
2018-12-18T00:41:47.315Z,1.30
2018-12-18T00:42:23.815Z,1.30
2018-12-18T00:43:00.713Z,1.30
2018-12-18T00:43:37.498Z,1.40
2018-12-18T00:44:14.541Z,1.40
2018-12-18T00:44:51.591Z,1.40
2018-12-18T00:45:28.059Z,1.40
2018-12-18T00:46:04.515Z,1.40
2018-12-18T00:46:40.787Z,1.40
2018-12-18T00:47:18.035Z,1.40
2018-12-18T00:47:54.407Z,1.40
2018-12-18T00:48:30.929Z,1.40
2018-12-18T00:49:06.959Z,1.40
2018-12-18T00:49:43.003Z,1.40
2018-12-18T00:50:19.443Z,1.40
2018-12-18T00:50:55.491Z,1.40
2018-12-18T00:51:31.549Z,1.50
2018-12-18T00:52:07.604Z,1.50
2018-12-18T00:52:43.659Z,1.40
2018-12-18T00:53:19.713Z,1.50
2018-12-18T00:53:56.567Z,1.40
2018-12-18T00:54:32.590Z,1.50
2018-12-18T00:55:09.397Z,1.50
2018-12-18T00:55:45.407Z,1.50
2018-12-18T00:56:21.458Z,1.50
2018-12-18T00:56:57.479Z,1.50
2018-12-18T00:57:33.879Z,1.40
2018-12-18T00:58:10.367Z,1.40
2018-12-18T00:58:46.815Z,1.40
2018-12-18T00:59:22.907Z,1.40
2018-12-18T00:59:59.673Z,1.40
2018-12-18T01:00:36.624Z,1.40
2018-12-18T01:01:13.099Z,1.40
2018-12-18T01:01:54.998Z,1.40
2018-12-18T01:02:31.003Z,1.40
2018-12-18T01:03:07.841Z,1.40
2018-12-18T01:03:45.003Z,1.40
2018-12-18T01:04:21.170Z,1.40
2018-12-18T01:04:57.250Z,1.40
2018-12-18T01:05:35.567Z,1.40
2018-12-18T01:06:12.436Z,1.40
2018-12-18T01:06:48.479Z,1.40
2018-12-18T01:07:24.686Z,1.40
2018-12-18T01:08:01.267Z,1.40
2018-12-18T01:08:37.315Z,1.40
2018-12-18T01:09:13.924Z,1.40
2018-12-18T01:09:50.387Z,1.40
2018-12-18T01:10:26.756Z,1.40
2018-12-18T01:11:04.551Z,1.40
2018-12-18T01:11:40.610Z,1.40
2018-12-18T01:12:16.672Z,1.40
2018-12-18T01:12:52.961Z,1.40
2018-12-18T01:13:29.388Z,1.40
2018-12-18T01:14:05.842Z,1.40
2018-12-18T01:14:42.259Z,1.40
2018-12-18T01:15:18.326Z,1.40
2018-12-18T01:15:54.743Z,1.40
2018-12-18T01:16:31.206Z,1.40
2018-12-18T01:17:08.056Z,1.50
2018-12-18T01:17:44.275Z,1.40
2018-12-18T01:18:20.582Z,1.40
2018-12-18T01:18:56.968Z,1.50
2018-12-18T01:19:33.816Z,1.50
2018-12-18T01:20:09.860Z,1.50
2018-12-18T01:20:45.909Z,1.50
2018-12-18T01:21:22.396Z,1.50
2018-12-18T01:21:58.860Z,1.50
2018-12-18T01:22:34.892Z,1.50
2018-12-18T01:23:10.912Z,1.50
2018-12-18T01:23:46.964Z,1.50
2018-12-18T01:24:23.000Z,1.50
2018-12-18T01:24:59.027Z,1.50
2018-12-18T01:25:35.471Z,1.60
2018-12-18T01:26:11.496Z,1.50
2018-12-18T01:26:47.532Z,1.50
2018-12-18T01:27:23.574Z,1.50
2018-12-18T01:27:59.592Z,1.60
2018-12-18T01:28:42.219Z,1.60
2018-12-18T01:29:18.647Z,1.60
2018-12-18T01:29:54.691Z,1.60
2018-12-18T01:30:31.160Z,1.60
2018-12-18T01:31:07.710Z,1.60
2018-12-18T01:31:43.782Z,1.60
2018-12-18T01:32:19.838Z,1.60
2018-12-18T01:32:56.244Z,1.60
2018-12-18T01:33:32.270Z,1.60
2018-12-18T01:34:08.718Z,1.60
2018-12-18T01:34:44.762Z,1.60
2018-12-18T01:35:20.784Z,1.50
2018-12-18T01:35:56.833Z,1.50
2018-12-18T01:36:32.880Z,1.60
2018-12-18T01:37:08.954Z,1.60
2018-12-18T01:37:44.994Z,1.50
2018-12-18T01:38:21.040Z,1.50
2018-12-18T01:38:57.119Z,1.50
2018-12-18T01:39:33.643Z,1.60
2018-12-18T01:40:10.494Z,1.50
2018-12-18T01:40:46.628Z,1.60
2018-12-18T01:41:22.653Z,1.60
2018-12-18T01:41:58.711Z,1.50
2018-12-18T01:42:34.842Z,1.50
2018-12-18T01:43:10.887Z,1.50
2018-12-18T01:43:46.914Z,1.60
2018-12-18T01:44:23.352Z,1.50
2018-12-18T01:44:59.792Z,1.50
2018-12-18T01:45:35.840Z,1.50
2018-12-18T01:46:11.984Z,1.50
2018-12-18T01:46:48.459Z,1.50
2018-12-18T01:47:24.561Z,1.60
2018-12-18T01:48:01.056Z,1.50
2018-12-18T01:48:39.137Z,1.60
2018-12-18T01:49:15.902Z,1.50
2018-12-18T01:49:51.998Z,1.50
2018-12-18T01:50:28.058Z,1.50
2018-12-18T01:51:04.098Z,1.60
2018-12-18T01:51:40.128Z,1.60
2018-12-18T01:52:16.602Z,1.60
2018-12-18T01:52:53.341Z,1.60
2018-12-18T01:53:30.259Z,1.60
2018-12-18T01:54:07.107Z,1.60
2018-12-18T01:54:43.191Z,1.60
2018-12-18T01:55:19.244Z,1.70
2018-12-18T01:55:55.283Z,1.60
2018-12-18T01:56:31.326Z,1.60
2018-12-18T01:57:07.367Z,1.60
2018-12-18T01:57:43.426Z,1.70
2018-12-18T01:58:19.835Z,1.70
2018-12-18T01:58:55.895Z,1.70
2018-12-18T01:59:32.368Z,1.70
2018-12-18T02:00:09.282Z,1.70
2018-12-18T02:00:46.099Z,1.70
2018-12-18T02:01:22.175Z,1.70
2018-12-18T02:01:58.235Z,1.70
2018-12-18T02:02:34.285Z,1.70
2018-12-18T02:03:10.723Z,1.70
2018-12-18T02:03:46.749Z,1.70
2018-12-18T02:04:22.823Z,1.70
2018-12-18T02:04:58.835Z,1.70
2018-12-18T02:05:35.257Z,1.70
2018-12-18T02:06:11.609Z,1.70
2018-12-18T02:06:47.979Z,1.70
2018-12-18T02:07:24.043Z,1.70
2018-12-18T02:08:00.123Z,1.70
2018-12-18T02:08:36.164Z,1.70
2018-12-18T02:09:12.536Z,1.70
2018-12-18T02:09:48.646Z,1.70
2018-12-18T02:10:24.918Z,1.70
2018-12-18T02:11:00.973Z,1.80
2018-12-18T02:11:37.039Z,1.70
2018-12-18T02:12:13.081Z,1.70
2018-12-18T02:12:49.123Z,1.80
2018-12-18T02:13:25.871Z,1.70
2018-12-18T02:14:02.347Z,1.70
2018-12-18T02:14:38.407Z,1.70
2018-12-18T02:15:14.837Z,1.70
2018-12-18T02:15:50.848Z,1.70
2018-12-18T02:16:26.919Z,1.70
2018-12-18T02:17:02.980Z,1.70
2018-12-18T02:17:39.009Z,1.70
2018-12-18T02:18:15.072Z,1.70
2018-12-18T02:18:51.108Z,1.80
2018-12-18T02:19:27.551Z,1.70
2018-12-18T02:20:04.917Z,1.80
2018-12-18T02:20:41.401Z,1.80
2018-12-18T02:21:18.111Z,1.80
2018-12-18T02:21:54.155Z,1.70
2018-12-18T02:22:30.185Z,1.70
2018-12-18T02:23:06.611Z,1.70
2018-12-18T02:23:42.668Z,1.80
2018-12-18T02:24:19.103Z,1.80
2018-12-18T02:24:55.553Z,1.80
2018-12-18T02:25:32.011Z,1.80
2018-12-18T02:26:08.483Z,1.80
2018-12-18T02:26:44.919Z,1.80
2018-12-18T02:27:20.983Z,1.80
2018-12-18T02:27:57.111Z,1.80
2018-12-18T02:28:33.135Z,1.80
2018-12-18T02:29:09.552Z,1.80
2018-12-18T02:29:45.607Z,1.80
2018-12-18T02:30:21.702Z,1.80
2018-12-18T02:30:57.785Z,1.80
2018-12-18T02:31:34.069Z,1.80
2018-12-18T02:32:10.127Z,1.80
2018-12-18T02:32:46.232Z,1.80
2018-12-18T02:33:22.308Z,1.80
2018-12-18T02:33:58.339Z,1.80
2018-12-18T02:34:34.416Z,1.80
2018-12-18T02:35:10.476Z,1.80
2018-12-18T02:35:46.503Z,1.80
2018-12-18T02:36:22.533Z,1.80
2018-12-18T02:36:58.579Z,1.70
2018-12-18T02:37:34.633Z,1.70
2018-12-18T02:38:10.654Z,1.70
2018-12-18T02:38:46.730Z,1.70
2018-12-18T02:39:23.269Z,1.70
2018-12-18T02:39:59.308Z,1.70
2018-12-18T02:40:35.355Z,1.70
2018-12-18T02:41:11.814Z,1.70
2018-12-18T02:41:47.847Z,1.70
2018-12-18T02:42:24.704Z,1.70
2018-12-18T02:43:00.783Z,1.70
2018-12-18T02:43:36.799Z,1.70
2018-12-18T02:44:12.843Z,1.70
2018-12-18T02:44:48.862Z,1.70
2018-12-18T02:45:24.889Z,1.70
2018-12-18T02:46:00.919Z,1.70
2018-12-18T02:46:36.965Z,1.70
2018-12-18T02:47:13.435Z,1.70
2018-12-18T02:47:49.892Z,1.70
2018-12-18T02:48:26.324Z,1.70
2018-12-18T02:49:02.339Z,1.70
2018-12-18T02:49:38.387Z,1.70
2018-12-18T02:50:14.410Z,1.60
2018-12-18T02:50:50.863Z,1.60
2018-12-18T02:51:27.312Z,1.60
2018-12-18T02:52:03.359Z,1.60
2018-12-18T02:52:39.788Z,1.60
2018-12-18T02:53:15.791Z,1.60
2018-12-18T02:53:51.900Z,1.60
2018-12-18T02:54:28.131Z,1.60
2018-12-18T02:55:05.001Z,1.60
2018-12-18T02:55:41.431Z,1.60
2018-12-18T02:56:17.451Z,1.60
2018-12-18T02:56:53.475Z,1.60
2018-12-18T02:57:29.543Z,1.60
2018-12-18T02:58:05.608Z,1.60
2018-12-18T02:58:41.635Z,1.60
2018-12-18T02:59:18.105Z,1.70
2018-12-18T02:59:54.748Z,1.60
2018-12-18T03:00:32.705Z,1.60
2018-12-18T03:01:08.724Z,1.70
2018-12-18T03:01:44.765Z,1.60
2018-12-18T03:02:20.815Z,1.60
2018-12-18T03:02:57.191Z,1.60
2018-12-18T03:03:33.231Z,1.60
2018-12-18T03:04:09.269Z,1.60
2018-12-18T03:04:45.283Z,1.70
2018-12-18T03:05:22.151Z,1.70
2018-12-18T03:05:58.929Z,1.70
2018-12-18T03:06:35.763Z,1.70
2018-12-18T03:07:12.206Z,1.70
2018-12-18T03:07:48.303Z,1.70
2018-12-18T03:08:24.415Z,1.70
2018-12-18T03:09:00.484Z,1.70
2018-12-18T03:09:36.534Z,1.70
2018-12-18T03:10:13.545Z,1.60
2018-12-18T03:10:50.032Z,1.70
2018-12-18T03:11:26.129Z,1.70
2018-12-18T03:12:04.093Z,1.60
2018-12-18T03:12:40.605Z,1.70
2018-12-18T03:13:17.055Z,1.70
2018-12-18T03:13:53.123Z,1.60
2018-12-18T03:14:30.039Z,1.60
2018-12-18T03:15:07.132Z,1.60
2018-12-18T03:15:43.184Z,1.60
2018-12-18T03:16:19.194Z,1.60
2018-12-18T03:16:55.641Z,1.60
2018-12-18T03:17:32.338Z,1.70
2018-12-18T03:18:08.532Z,1.70
2018-12-18T03:18:44.761Z,1.70
2018-12-18T03:19:21.730Z,1.70
2018-12-18T03:19:57.754Z,1.70
2018-12-18T03:20:33.800Z,1.70
2018-12-18T03:21:10.252Z,1.70
2018-12-18T03:21:46.289Z,1.70
2018-12-18T03:22:22.959Z,1.70
2018-12-18T03:22:59.001Z,1.60
2018-12-18T03:23:35.011Z,1.60
2018-12-18T03:24:11.076Z,1.70
2018-12-18T03:24:47.106Z,1.70
2018-12-18T03:25:23.183Z,1.70
2018-12-18T03:26:00.032Z,1.60
2018-12-18T03:26:36.038Z,1.60
2018-12-18T03:27:12.460Z,1.60
2018-12-18T03:27:48.900Z,1.60
2018-12-18T03:28:24.988Z,1.60
2018-12-18T03:29:01.379Z,1.60
2018-12-18T03:29:37.423Z,1.70
2018-12-18T03:30:13.885Z,1.60
2018-12-18T03:30:49.886Z,1.70
2018-12-18T03:31:27.297Z,1.70
2018-12-18T03:32:08.761Z,1.70
2018-12-18T03:32:49.524Z,1.70
2018-12-18T03:33:25.841Z,1.70
2018-12-18T03:34:02.458Z,1.70
2018-12-18T03:34:38.869Z,1.70
2018-12-18T03:35:15.287Z,1.70
2018-12-18T03:35:51.335Z,1.60
2018-12-18T03:36:27.363Z,1.60
2018-12-18T03:37:03.771Z,1.70
2018-12-18T03:37:39.765Z,1.60
2018-12-18T03:38:15.776Z,1.70
2018-12-18T03:38:51.819Z,1.70
2018-12-18T03:39:28.403Z,1.70
2018-12-18T03:40:06.324Z,1.70
2018-12-18T03:40:43.149Z,1.70
2018-12-18T03:41:19.604Z,1.70
2018-12-18T03:41:55.619Z,1.70
2018-12-18T03:42:31.665Z,1.70
2018-12-18T03:43:07.723Z,1.70
2018-12-18T03:43:44.181Z,1.60
2018-12-18T03:44:20.219Z,1.60
2018-12-18T03:44:56.607Z,1.60
2018-12-18T03:45:32.676Z,1.70
2018-12-18T03:46:09.175Z,1.70
2018-12-18T03:46:45.184Z,1.60
2018-12-18T03:47:21.527Z,1.70
2018-12-18T03:47:57.979Z,1.60
2018-12-18T03:48:33.990Z,1.60
2018-12-18T03:49:10.050Z,1.60
2018-12-18T03:49:46.469Z,1.60
2018-12-18T03:50:22.929Z,1.60
2018-12-18T03:50:59.414Z,1.60
2018-12-18T03:51:35.454Z,1.60
2018-12-18T03:52:11.506Z,1.70
2018-12-18T03:52:47.581Z,1.70
2018-12-18T03:53:23.660Z,1.70
2018-12-18T03:54:00.147Z,1.70
2018-12-18T03:54:36.196Z,1.70
2018-12-18T03:55:12.242Z,1.70
2018-12-18T03:55:48.261Z,1.70
2018-12-18T03:56:25.170Z,1.70
2018-12-18T03:57:01.218Z,1.70
2018-12-18T03:57:37.342Z,1.70
2018-12-18T03:58:13.457Z,1.70
2018-12-18T03:58:49.895Z,1.70
2018-12-18T03:59:25.938Z,1.70
2018-12-18T04:00:02.446Z,1.70
2018-12-18T04:00:38.511Z,1.70
2018-12-18T04:01:14.552Z,1.70
2018-12-18T04:01:50.637Z,1.70
2018-12-18T04:02:27.084Z,1.70
2018-12-18T04:03:03.559Z,1.70
2018-12-18T04:03:39.958Z,1.70
2018-12-18T04:04:16.373Z,1.70
2018-12-18T04:04:52.407Z,1.70
2018-12-18T04:05:29.229Z,1.70
2018-12-18T04:06:05.273Z,1.70
2018-12-18T04:06:41.294Z,1.80
2018-12-18T04:07:17.319Z,1.80
2018-12-18T04:07:53.348Z,1.80
2018-12-18T04:08:29.422Z,1.80
2018-12-18T04:09:07.296Z,1.80
2018-12-18T04:09:43.333Z,1.80
2018-12-18T04:10:20.153Z,1.70
2018-12-18T04:10:56.600Z,1.80
2018-12-18T04:11:32.673Z,1.80
2018-12-18T04:12:12.149Z,1.80
2018-12-18T04:12:48.597Z,1.80
2018-12-18T04:13:24.671Z,1.80
2018-12-18T04:14:00.712Z,1.80
2018-12-18T04:14:37.250Z,1.80
2018-12-18T04:15:14.386Z,1.80
2018-12-18T04:15:50.423Z,1.80
2018-12-18T04:16:26.466Z,1.80
2018-12-18T04:17:02.476Z,1.80
2018-12-18T04:17:39.079Z,1.80
2018-12-18T04:18:15.172Z,1.90
2018-12-18T04:18:51.212Z,1.90
2018-12-18T04:19:27.230Z,1.80
2018-12-18T04:20:03.802Z,1.90
2018-12-18T04:20:39.837Z,1.80
2018-12-18T04:21:16.255Z,1.80
2018-12-18T04:21:52.641Z,1.80
2018-12-18T04:22:28.685Z,1.80
2018-12-18T04:23:04.716Z,1.80
2018-12-18T04:23:40.759Z,1.80
2018-12-18T04:24:17.184Z,1.80
2018-12-18T04:24:53.200Z,1.80
2018-12-18T04:25:29.621Z,1.90
2018-12-18T04:26:05.662Z,1.90
2018-12-18T04:26:41.683Z,1.90
2018-12-18T04:27:17.687Z,1.90
2018-12-18T04:27:53.726Z,1.90
2018-12-18T04:28:30.159Z,1.90
2018-12-18T04:29:06.206Z,1.90
2018-12-18T04:29:42.272Z,1.90
2018-12-18T04:30:18.326Z,1.90
2018-12-18T04:30:55.160Z,1.90
2018-12-18T04:31:31.576Z,1.90
2018-12-18T04:32:07.765Z,1.90
2018-12-18T04:32:43.787Z,1.90
2018-12-18T04:33:19.815Z,1.90
2018-12-18T04:33:55.860Z,1.90
2018-12-18T04:34:31.888Z,1.90
2018-12-18T04:35:08.718Z,1.90
2018-12-18T04:35:44.738Z,1.90
2018-12-18T04:36:21.145Z,1.90
2018-12-18T04:36:57.257Z,1.90
2018-12-18T04:42:34.774Z,1.90
2018-12-18T04:43:11.214Z,1.90
2018-12-18T04:43:47.242Z,1.90
2018-12-18T04:44:24.006Z,1.90
2018-12-18T04:45:00.403Z,1.90
2018-12-18T04:45:36.435Z,1.90
2018-12-18T04:46:12.577Z,1.90
2018-12-18T04:46:48.582Z,1.90
2018-12-18T04:47:24.677Z,1.90
2018-12-18T04:48:00.710Z,1.90
2018-12-18T04:48:36.717Z,1.90
2018-12-18T04:49:12.691Z,1.90
2018-12-18T04:49:48.720Z,1.90
2018-12-18T04:50:25.206Z,1.90
2018-12-18T04:51:01.607Z,1.90
2018-12-18T04:51:37.620Z,1.90
2018-12-18T04:52:14.032Z,1.90
2018-12-18T04:52:50.064Z,1.90
2018-12-18T04:53:26.479Z,1.90
2018-12-18T04:54:02.554Z,1.90
2018-12-18T04:54:39.004Z,1.90
2018-12-18T04:55:15.023Z,1.90
2018-12-18T04:55:51.055Z,1.90
2018-12-18T04:56:27.071Z,1.90
2018-12-18T04:57:03.912Z,2.00
2018-12-18T04:57:40.327Z,2.00
2018-12-18T04:58:16.359Z,1.90
2018-12-18T04:58:52.398Z,2.00
2018-12-18T04:59:28.434Z,2.00
2018-12-18T05:00:06.295Z,2.00
2018-12-18T05:00:42.368Z,2.00
2018-12-18T05:01:18.859Z,2.00
2018-12-18T05:01:54.896Z,2.00
2018-12-18T05:02:30.937Z,2.00
2018-12-18T05:03:13.599Z,2.00
2018-12-18T05:03:49.644Z,2.00
2018-12-18T05:04:25.687Z,2.00
2018-12-18T05:05:01.732Z,2.00
2018-12-18T05:05:37.781Z,2.00
2018-12-18T05:06:13.821Z,2.00
2018-12-18T05:06:50.270Z,2.00
2018-12-18T05:07:26.869Z,2.00
2018-12-18T05:08:03.314Z,2.00
2018-12-18T05:08:39.331Z,2.00
2018-12-18T05:09:15.953Z,2.00
2018-12-18T05:09:51.971Z,2.00
2018-12-18T05:10:28.412Z,2.00
2018-12-18T05:11:04.483Z,2.00
2018-12-18T05:11:40.906Z,2.00
2018-12-18T05:12:16.957Z,2.00
2018-12-18T05:12:52.996Z,2.00
2018-12-18T05:13:30.006Z,2.00
2018-12-18T05:14:06.216Z,2.00
2018-12-18T05:14:42.258Z,2.00
2018-12-18T05:15:18.673Z,2.00
2018-12-18T05:15:55.218Z,2.00
2018-12-18T05:16:31.347Z,2.00
2018-12-18T05:17:07.467Z,2.00
2018-12-18T05:17:43.512Z,2.00
2018-12-18T05:18:19.559Z,2.00
2018-12-18T05:18:56.028Z,2.00
2018-12-18T05:19:32.751Z,2.00
2018-12-18T05:20:09.635Z,2.00
2018-12-18T05:20:46.113Z,2.00
2018-12-18T05:21:22.847Z,2.10
2018-12-18T05:21:58.894Z,2.00
2018-12-18T05:22:34.942Z,2.00
2018-12-18T05:23:10.965Z,2.00
2018-12-18T05:23:46.987Z,2.00
2018-12-18T05:24:23.057Z,2.10
2018-12-18T05:24:59.127Z,2.00
2018-12-18T05:25:35.146Z,2.10
2018-12-18T05:26:11.447Z,2.10
2018-12-18T05:26:47.539Z,2.10
2018-12-18T05:27:24.044Z,2.10
2018-12-18T05:28:00.083Z,2.10
2018-12-18T05:28:36.134Z,2.10
2018-12-18T05:29:12.199Z,2.10
2018-12-18T05:29:48.302Z,2.10
2018-12-18T05:30:24.829Z,2.10
2018-12-18T05:31:00.889Z,2.10
2018-12-18T05:31:36.968Z,2.10
2018-12-18T05:32:13.430Z,2.10
2018-12-18T05:32:49.453Z,2.10
2018-12-18T05:33:25.498Z,2.10
2018-12-18T05:34:01.554Z,2.10
2018-12-18T05:34:37.561Z,2.10
2018-12-18T05:35:13.628Z,2.10
2018-12-18T05:35:49.699Z,2.10
2018-12-18T05:36:26.312Z,2.10
2018-12-18T05:37:02.807Z,2.10
2018-12-18T05:37:38.862Z,2.10
2018-12-18T05:38:14.886Z,2.10
2018-12-18T05:38:51.247Z,2.10
2018-12-18T05:39:27.302Z,2.10
2018-12-18T05:40:04.483Z,2.10
2018-12-18T05:40:41.357Z,2.10
2018-12-18T05:41:18.226Z,2.10
2018-12-18T05:41:54.271Z,2.10
2018-12-18T05:42:30.693Z,2.10
2018-12-18T05:43:07.081Z,2.10
2018-12-18T05:43:43.448Z,2.10
2018-12-18T05:44:19.481Z,2.10
2018-12-18T05:44:55.524Z,2.10
2018-12-18T05:45:31.976Z,2.10
2018-12-18T05:46:08.455Z,2.10
2018-12-18T05:46:44.551Z,2.10
2018-12-18T05:47:20.604Z,2.00
2018-12-18T05:47:56.683Z,2.10
2018-12-18T05:48:33.090Z,2.00
2018-12-18T05:49:09.089Z,2.00
2018-12-18T05:49:45.140Z,2.00
2018-12-18T05:50:21.650Z,2.00
2018-12-18T05:50:58.144Z,2.00
2018-12-18T05:51:34.199Z,2.00
2018-12-18T05:52:10.282Z,2.10
2018-12-18T05:52:46.356Z,2.10
2018-12-18T05:53:22.448Z,2.10
2018-12-18T05:53:58.490Z,2.10
2018-12-18T05:54:34.928Z,2.10
2018-12-18T05:55:11.360Z,2.10
2018-12-18T05:55:47.430Z,2.10
2018-12-18T05:56:23.481Z,2.10
2018-12-18T05:56:59.566Z,2.10
2018-12-18T05:57:36.072Z,2.10
2018-12-18T05:58:12.606Z,2.10
2018-12-18T05:58:55.360Z,2.10
2018-12-18T05:59:31.418Z,2.10
2018-12-18T06:00:08.702Z,2.10
2018-12-18T06:00:44.810Z,2.10
2018-12-18T06:01:20.898Z,2.10
2018-12-18T06:01:57.327Z,2.20
2018-12-18T06:02:33.388Z,2.10
2018-12-18T06:03:09.854Z,2.10
2018-12-18T06:03:45.914Z,2.10
2018-12-18T06:04:22.041Z,2.20
2018-12-18T06:05:03.175Z,2.20
2018-12-18T06:05:36.080Z,2.20
2018-12-18T06:06:12.504Z,2.20
2018-12-18T06:06:48.910Z,2.20
2018-12-18T06:07:24.934Z,2.20
2018-12-18T06:08:00.986Z,2.20
2018-12-18T06:08:36.996Z,2.20
2018-12-18T06:09:13.017Z,2.20
2018-12-18T06:09:49.054Z,2.20
2018-12-18T06:10:25.111Z,2.20
2018-12-18T06:11:01.280Z,2.20
2018-12-18T06:11:37.338Z,2.20
2018-12-18T06:12:13.795Z,2.20
2018-12-18T06:12:50.602Z,2.20
2018-12-18T06:13:26.630Z,2.20
2018-12-18T06:14:02.680Z,2.20
2018-12-18T06:14:38.726Z,2.20
2018-12-18T06:15:15.281Z,2.20
2018-12-18T06:15:51.374Z,2.20
2018-12-18T06:16:27.424Z,2.20
2018-12-18T06:17:03.874Z,2.20
2018-12-18T06:17:40.374Z,2.20
2018-12-18T06:18:16.392Z,2.20
2018-12-18T06:18:52.452Z,2.20
2018-12-18T06:19:28.496Z,2.20
2018-12-18T06:20:05.680Z,2.20
2018-12-18T06:20:41.722Z,2.10
2018-12-18T06:21:18.158Z,2.10
2018-12-18T06:21:54.182Z,2.10
2018-12-18T06:22:30.601Z,2.10
2018-12-18T06:23:06.658Z,2.10
2018-12-18T06:23:42.692Z,2.10
2018-12-18T06:24:18.734Z,2.10
2018-12-18T06:24:54.778Z,2.10
2018-12-18T06:25:30.896Z,2.10
2018-12-18T06:26:07.225Z,2.10
2018-12-18T06:26:43.306Z,2.10
2018-12-18T06:27:19.356Z,2.10
2018-12-18T06:27:55.382Z,2.10
2018-12-18T06:28:31.403Z,2.20
2018-12-18T06:29:07.828Z,2.10
2018-12-18T06:29:43.879Z,2.10
2018-12-18T06:30:19.919Z,2.10
2018-12-18T06:30:55.960Z,2.10
2018-12-18T06:31:31.982Z,2.10
2018-12-18T06:32:08.129Z,2.10
2018-12-18T06:32:44.147Z,2.10
2018-12-18T06:33:20.570Z,2.10
2018-12-18T06:33:57.010Z,2.10
2018-12-18T06:34:33.028Z,2.20
2018-12-18T06:35:10.483Z,2.10
2018-12-18T06:35:47.809Z,2.10
2018-12-18T06:36:23.831Z,2.10
2018-12-18T06:36:59.858Z,2.20
2018-12-18T06:37:35.885Z,2.20
2018-12-18T06:38:12.749Z,2.20
2018-12-18T06:38:48.792Z,2.20
2018-12-18T06:39:25.136Z,2.20
2018-12-18T06:40:01.510Z,2.20
2018-12-18T06:40:37.512Z,2.20
2018-12-18T06:41:14.388Z,2.20
2018-12-18T06:41:50.818Z,2.20
2018-12-18T06:42:26.909Z,2.20
2018-12-18T06:43:03.357Z,2.30
2018-12-18T06:43:39.376Z,2.30
2018-12-18T06:44:15.428Z,2.20
2018-12-18T06:44:51.520Z,2.20
2018-12-18T06:45:27.544Z,2.20
2018-12-18T06:46:04.738Z,2.20
2018-12-18T06:46:40.778Z,2.30
2018-12-18T06:47:16.931Z,2.30
2018-12-18T06:47:52.988Z,2.30
2018-12-18T06:48:29.014Z,2.30
2018-12-18T06:49:05.062Z,2.30
2018-12-18T06:49:41.110Z,2.30
2018-12-18T06:50:17.158Z,2.30
2018-12-18T06:50:53.178Z,2.30
2018-12-18T06:51:29.703Z,2.30
2018-12-18T06:52:06.183Z,2.30
2018-12-18T06:52:42.230Z,2.30
2018-12-18T06:53:18.268Z,2.30
2018-12-18T06:53:54.701Z,2.30
2018-12-18T06:54:30.746Z,2.30
2018-12-18T06:55:07.608Z,2.30
2018-12-18T06:55:43.625Z,2.30
2018-12-18T06:56:19.670Z,2.30
2018-12-18T06:56:55.696Z,2.30
2018-12-18T06:57:32.102Z,2.30
2018-12-18T06:58:08.470Z,2.30
2018-12-18T06:58:44.515Z,2.30
2018-12-18T06:59:20.554Z,2.30
2018-12-18T06:59:56.638Z,2.30
2018-12-18T07:00:32.729Z,2.30
2018-12-18T07:01:09.151Z,2.30
2018-12-18T07:01:45.598Z,2.30
2018-12-18T07:02:22.018Z,2.30
2018-12-18T07:02:58.058Z,2.30
2018-12-18T07:03:34.479Z,2.30
2018-12-18T07:04:10.542Z,2.30
2018-12-18T07:04:46.612Z,2.30
2018-12-18T07:05:23.434Z,2.30
2018-12-18T07:05:59.475Z,2.30
2018-12-18T07:06:35.509Z,2.30
2018-12-18T07:07:11.587Z,2.30
2018-12-18T07:07:48.034Z,2.40
2018-12-18T07:08:24.458Z,2.30
2018-12-18T07:09:00.466Z,2.30
2018-12-18T07:09:36.857Z,2.30
2018-12-18T07:10:13.315Z,2.30
2018-12-18T07:10:49.778Z,2.30
2018-12-18T07:11:25.846Z,2.30
2018-12-18T07:12:01.893Z,2.30
2018-12-18T07:12:37.939Z,2.30
2018-12-18T07:13:13.979Z,2.30
2018-12-18T07:13:50.007Z,2.30
2018-12-18T07:14:26.078Z,2.30
2018-12-18T07:15:02.102Z,2.30
2018-12-18T07:15:38.160Z,2.30
2018-12-18T07:16:14.227Z,2.30
2018-12-18T07:16:50.246Z,2.30
2018-12-18T07:17:26.666Z,2.30
2018-12-18T07:18:03.101Z,2.20
2018-12-18T07:18:39.127Z,2.20
2018-12-18T07:19:15.147Z,2.20
2018-12-18T07:19:51.188Z,2.20
2018-12-18T07:20:27.626Z,2.20
2018-12-18T07:21:04.062Z,2.20
2018-12-18T07:21:41.885Z,2.20
2018-12-18T07:22:18.413Z,2.20
2018-12-18T07:22:54.855Z,2.20
2018-12-18T07:23:31.205Z,2.20
2018-12-18T07:24:13.780Z,2.20
2018-12-18T07:24:45.328Z,2.20
2018-12-18T07:25:21.777Z,2.30
2018-12-18T07:25:58.623Z,2.20
2018-12-18T07:26:36.080Z,2.30
2018-12-18T07:27:12.114Z,2.30
2018-12-18T07:27:48.175Z,2.20
2018-12-18T07:28:24.589Z,2.30
2018-12-18T07:29:00.990Z,2.30
2018-12-18T07:29:37.003Z,2.30
2018-12-18T07:30:13.862Z,2.30
2018-12-18T07:30:50.203Z,2.30
2018-12-18T07:31:26.271Z,2.30
2018-12-18T07:32:02.332Z,2.30
2018-12-18T07:32:38.395Z,2.30
2018-12-18T07:33:14.825Z,2.30
2018-12-18T07:33:50.840Z,2.30
2018-12-18T07:34:33.244Z,2.30
2018-12-18T07:35:07.469Z,2.30
2018-12-18T07:35:43.478Z,2.30
2018-12-18T07:36:19.503Z,2.30
2018-12-18T07:36:55.962Z,2.30
2018-12-18T07:37:31.987Z,2.30
2018-12-18T07:38:08.418Z,2.30
2018-12-18T07:38:44.907Z,2.30
2018-12-18T07:39:21.320Z,2.30
2018-12-18T07:39:57.763Z,2.30
2018-12-18T07:40:34.199Z,2.30
2018-12-18T07:41:10.654Z,2.30
2018-12-18T07:41:47.391Z,2.30
2018-12-18T07:42:23.495Z,2.30
2018-12-18T07:42:59.567Z,2.30
2018-12-18T07:43:35.991Z,2.30
2018-12-18T07:44:12.084Z,2.30
2018-12-18T07:44:48.111Z,2.30
2018-12-18T07:45:24.175Z,2.30
2018-12-18T07:46:00.547Z,2.30
2018-12-18T07:46:37.045Z,2.30
2018-12-18T07:47:13.385Z,2.30
2018-12-18T07:47:49.433Z,2.30
2018-12-18T07:48:25.477Z,2.30
2018-12-18T07:49:01.523Z,2.30
2018-12-18T07:49:38.257Z,2.30
2018-12-18T07:50:14.295Z,2.30
2018-12-18T07:50:50.719Z,2.40
2018-12-18T07:51:26.763Z,2.40
2018-12-18T07:52:03.237Z,2.40
2018-12-18T07:52:39.635Z,2.40
2018-12-18T07:53:15.659Z,2.40
2018-12-18T07:53:51.691Z,2.40
2018-12-18T07:54:27.721Z,2.40
2018-12-18T07:55:04.703Z,2.40
2018-12-18T07:55:40.824Z,2.40
2018-12-18T07:56:16.835Z,2.40
2018-12-18T07:56:52.873Z,2.40
2018-12-18T07:57:29.315Z,2.40
2018-12-18T07:58:05.725Z,2.50
2018-12-18T07:58:41.783Z,2.50
2018-12-18T07:59:19.507Z,2.50
2018-12-18T07:59:55.573Z,2.50
2018-12-18T08:00:32.032Z,2.50
2018-12-18T08:01:08.077Z,2.50
2018-12-18T08:01:44.407Z,2.50
2018-12-18T08:02:20.865Z,2.50
2018-12-18T08:02:57.672Z,2.50
2018-12-18T08:03:34.155Z,2.50
2018-12-18T08:04:10.171Z,2.50
2018-12-18T08:04:46.595Z,2.50
2018-12-18T08:05:22.627Z,2.50
2018-12-18T08:05:58.667Z,2.50
2018-12-18T08:06:34.768Z,2.50
2018-12-18T08:07:12.398Z,2.50
2018-12-18T08:07:48.871Z,2.50
2018-12-18T08:08:24.903Z,2.50
2018-12-18T08:09:00.931Z,2.50